sensor_id;sensor_type;location;lat;lon;timestamp;P1;durP1;ratioP1;P2;durP2;ratioP2
23444;SDS011;11895;48.738;9.320;2023-01-09T00:01:32;14.95;;;8.75;;
23444;SDS011;11895;48.738;9.320;2023-01-09T00:04:05;12.65;;;9.00;;
23444;SDS011;11895;48.738;9.320;2023-01-09T00:06:34;12.93;;;8.45;;
23444;SDS011;11895;48.738;9.320;2023-01-09T00:09:02;12.70;;;8.70;;
23444;SDS011;11895;48.738;9.320;2023-01-09T00:11:30;10.85;;;8.05;;
23444;SDS011;11895;48.738;9.320;2023-01-09T00:13:58;11.68;;;9.05;;
23444;SDS011;11895;48.738;9.320;2023-01-09T00:16:25;13.27;;;9.40;;
23444;SDS011;11895;48.738;9.320;2023-01-09T00:18:53;15.93;;;9.70;;
23444;SDS011;11895;48.738;9.320;2023-01-09T00:21:22;17.15;;;8.88;;
23444;SDS011;11895;48.738;9.320;2023-01-09T00:23:51;11.98;;;9.25;;
23444;SDS011;11895;48.738;9.320;2023-01-09T00:26:20;12.68;;;9.00;;
23444;SDS011;11895;48.738;9.320;2023-01-09T00:28:49;10.63;;;8.35;;
23444;SDS011;11895;48.738;9.320;2023-01-09T00:31:19;13.60;;;9.45;;
23444;SDS011;11895;48.738;9.320;2023-01-09T00:33:51;14.27;;;9.75;;
23444;SDS011;11895;48.738;9.320;2023-01-09T00:36:27;14.98;;;9.57;;
23444;SDS011;11895;48.738;9.320;2023-01-09T00:38:55;13.88;;;9.00;;
23444;SDS011;11895;48.738;9.320;2023-01-09T00:41:24;15.02;;;9.40;;
23444;SDS011;11895;48.738;9.320;2023-01-09T00:46:44;10.80;;;8.55;;
23444;SDS011;11895;48.738;9.320;2023-01-09T00:49:17;13.30;;;8.48;;
23444;SDS011;11895;48.738;9.320;2023-01-09T00:51:46;12.07;;;8.50;;
23444;SDS011;11895;48.738;9.320;2023-01-09T00:54:15;13.55;;;8.70;;
23444;SDS011;11895;48.738;9.320;2023-01-09T00:56:44;11.80;;;8.48;;
23444;SDS011;11895;48.738;9.320;2023-01-09T00:59:12;15.27;;;9.20;;
23444;SDS011;11895;48.738;9.320;2023-01-09T01:01:40;11.00;;;7.28;;
23444;SDS011;11895;48.738;9.320;2023-01-09T01:04:08;9.17;;;6.87;;
23444;SDS011;11895;48.738;9.320;2023-01-09T01:06:55;8.18;;;6.35;;
23444;SDS011;11895;48.738;9.320;2023-01-09T01:12:46;10.73;;;5.70;;
23444;SDS011;11895;48.738;9.320;2023-01-09T01:15:16;11.13;;;6.63;;
23444;SDS011;11895;48.738;9.320;2023-01-09T01:17:45;14.45;;;7.72;;
23444;SDS011;11895;48.738;9.320;2023-01-09T01:20:15;10.05;;;6.65;;
23444;SDS011;11895;48.738;9.320;2023-01-09T01:22:44;9.65;;;6.50;;
23444;SDS011;11895;48.738;9.320;2023-01-09T01:25:12;8.05;;;5.57;;
23444;SDS011;11895;48.738;9.320;2023-01-09T01:27:43;10.00;;;6.72;;
23444;SDS011;11895;48.738;9.320;2023-01-09T01:30:11;11.20;;;7.03;;
23444;SDS011;11895;48.738;9.320;2023-01-09T01:32:42;11.75;;;7.78;;
23444;SDS011;11895;48.738;9.320;2023-01-09T01:35:10;10.20;;;7.87;;
23444;SDS011;11895;48.738;9.320;2023-01-09T01:37:38;14.93;;;8.60;;
23444;SDS011;11895;48.738;9.320;2023-01-09T01:40:07;12.57;;;7.73;;
23444;SDS011;11895;48.738;9.320;2023-01-09T01:42:43;10.15;;;7.32;;
23444;SDS011;11895;48.738;9.320;2023-01-09T01:45:17;9.60;;;7.55;;
23444;SDS011;11895;48.738;9.320;2023-01-09T01:48:28;10.98;;;8.07;;
23444;SDS011;11895;48.738;9.320;2023-01-09T01:58:46;10.35;;;5.45;;
23444;SDS011;11895;48.738;9.320;2023-01-09T02:01:27;7.03;;;5.03;;
23444;SDS011;11895;48.738;9.320;2023-01-09T02:03:56;6.97;;;5.03;;
23444;SDS011;11895;48.738;9.320;2023-01-09T02:06:28;5.38;;;3.88;;
23444;SDS011;11895;48.738;9.320;2023-01-09T02:08:59;4.93;;;3.65;;
23444;SDS011;11895;48.738;9.320;2023-01-09T02:11:30;5.28;;;3.70;;
23444;SDS011;11895;48.738;9.320;2023-01-09T02:13:58;3.83;;;3.10;;
23444;SDS011;11895;48.738;9.320;2023-01-09T02:22:34;2.75;;;2.33;;
23444;SDS011;11895;48.738;9.320;2023-01-09T02:25:41;2.42;;;1.67;;
23444;SDS011;11895;48.738;9.320;2023-01-09T02:43:04;2.38;;;1.42;;
23444;SDS011;11895;48.738;9.320;2023-01-09T02:45:33;3.08;;;1.85;;
23444;SDS011;11895;48.738;9.320;2023-01-09T02:48:00;3.90;;;1.80;;
23444;SDS011;11895;48.738;9.320;2023-01-09T02:50:35;3.70;;;0.90;;
23444;SDS011;11895;48.738;9.320;2023-01-09T02:53:39;3.58;;;1.20;;
23444;SDS011;11895;48.738;9.320;2023-01-09T02:59:14;2.03;;;1.23;;
23444;SDS011;11895;48.738;9.320;2023-01-09T03:04:52;2.55;;;1.13;;
23444;SDS011;11895;48.738;9.320;2023-01-09T03:08:00;1.08;;;0.82;;
23444;SDS011;11895;48.738;9.320;2023-01-09T03:10:43;1.23;;;0.90;;
23444;SDS011;11895;48.738;9.320;2023-01-09T03:13:18;0.90;;;0.90;;
23444;SDS011;11895;48.738;9.320;2023-01-09T03:15:51;1.42;;;1.00;;
23444;SDS011;11895;48.738;9.320;2023-01-09T03:18:22;0.90;;;0.70;;
23444;SDS011;11895;48.738;9.320;2023-01-09T03:20:52;6.07;;;0.73;;
23444;SDS011;11895;48.738;9.320;2023-01-09T03:23:21;3.90;;;1.05;;
23444;SDS011;11895;48.738;9.320;2023-01-09T03:25:49;0.57;;;0.52;;
23444;SDS011;11895;48.738;9.320;2023-01-09T03:28:29;6.93;;;1.00;;
23444;SDS011;11895;48.738;9.320;2023-01-09T03:30:57;0.95;;;0.63;;
23444;SDS011;11895;48.738;9.320;2023-01-09T03:33:24;0.73;;;0.68;;
23444;SDS011;11895;48.738;9.320;2023-01-09T03:35:52;0.82;;;0.50;;
23444;SDS011;11895;48.738;9.320;2023-01-09T03:38:19;0.70;;;0.50;;
23444;SDS011;11895;48.738;9.320;2023-01-09T03:40:47;0.68;;;0.50;;
23444;SDS011;11895;48.738;9.320;2023-01-09T03:43:15;3.95;;;0.70;;
23444;SDS011;11895;48.738;9.320;2023-01-09T03:45:42;1.50;;;0.65;;
23444;SDS011;11895;48.738;9.320;2023-01-09T03:48:10;1.60;;;0.50;;
23444;SDS011;11895;48.738;9.320;2023-01-09T03:50:38;0.40;;;0.40;;
23444;SDS011;11895;48.738;9.320;2023-01-09T03:53:11;0.60;;;0.40;;
23444;SDS011;11895;48.738;9.320;2023-01-09T03:55:42;0.65;;;0.50;;
23444;SDS011;11895;48.738;9.320;2023-01-09T03:58:16;0.50;;;0.50;;
23444;SDS011;11895;48.738;9.320;2023-01-09T04:00:44;0.65;;;0.43;;
23444;SDS011;11895;48.738;9.320;2023-01-09T04:03:14;0.45;;;0.45;;
23444;SDS011;11895;48.738;9.320;2023-01-09T04:05:46;0.40;;;0.40;;
23444;SDS011;11895;48.738;9.320;2023-01-09T04:08:15;0.45;;;0.45;;
23444;SDS011;11895;48.738;9.320;2023-01-09T04:10:44;0.50;;;0.50;;
23444;SDS011;11895;48.738;9.320;2023-01-09T04:13:13;2.25;;;0.70;;
23444;SDS011;11895;48.738;9.320;2023-01-09T04:15:41;0.80;;;0.70;;
23444;SDS011;11895;48.738;9.320;2023-01-09T04:18:09;0.60;;;0.55;;
23444;SDS011;11895;48.738;9.320;2023-01-09T04:20:37;2.40;;;1.45;;
23444;SDS011;11895;48.738;9.320;2023-01-09T04:23:04;1.73;;;0.90;;
23444;SDS011;11895;48.738;9.320;2023-01-09T04:25:32;3.58;;;0.60;;
23444;SDS011;11895;48.738;9.320;2023-01-09T04:28:00;2.10;;;0.82;;
23444;SDS011;11895;48.738;9.320;2023-01-09T04:30:27;2.67;;;0.70;;
23444;SDS011;11895;48.738;9.320;2023-01-09T04:32:55;2.78;;;1.70;;
23444;SDS011;11895;48.738;9.320;2023-01-09T04:35:23;2.15;;;1.30;;
23444;SDS011;11895;48.738;9.320;2023-01-09T04:37:50;4.07;;;1.10;;
23444;SDS011;11895;48.738;9.320;2023-01-09T04:40:18;1.27;;;1.10;;
23444;SDS011;11895;48.738;9.320;2023-01-09T04:42:45;2.08;;;0.90;;
23444;SDS011;11895;48.738;9.320;2023-01-09T04:45:13;3.60;;;0.90;;
23444;SDS011;11895;48.738;9.320;2023-01-09T04:47:42;2.15;;;1.00;;
23444;SDS011;11895;48.738;9.320;2023-01-09T04:50:10;1.20;;;0.90;;
23444;SDS011;11895;48.738;9.320;2023-01-09T04:52:39;1.50;;;0.90;;
23444;SDS011;11895;48.738;9.320;2023-01-09T04:55:06;1.95;;;1.05;;
23444;SDS011;11895;48.738;9.320;2023-01-09T04:57:35;3.03;;;1.60;;
23444;SDS011;11895;48.738;9.320;2023-01-09T05:00:03;2.03;;;1.00;;
23444;SDS011;11895;48.738;9.320;2023-01-09T05:02:37;1.75;;;0.77;;
23444;SDS011;11895;48.738;9.320;2023-01-09T05:05:06;1.15;;;0.60;;
23444;SDS011;11895;48.738;9.320;2023-01-09T05:07:37;0.40;;;0.40;;
23444;SDS011;11895;48.738;9.320;2023-01-09T05:10:05;0.50;;;0.50;;
23444;SDS011;11895;48.738;9.320;2023-01-09T05:12:38;1.70;;;0.50;;
23444;SDS011;11895;48.738;9.320;2023-01-09T05:15:06;1.25;;;0.65;;
23444;SDS011;11895;48.738;9.320;2023-01-09T05:17:35;2.10;;;0.40;;
23444;SDS011;11895;48.738;9.320;2023-01-09T05:20:03;0.45;;;0.35;;
23444;SDS011;11895;48.738;9.320;2023-01-09T05:22:31;3.15;;;0.55;;
23444;SDS011;11895;48.738;9.320;2023-01-09T05:24:58;0.68;;;0.40;;
23444;SDS011;11895;48.738;9.320;2023-01-09T05:27:26;0.55;;;0.47;;
23444;SDS011;11895;48.738;9.320;2023-01-09T05:32:23;1.05;;;0.60;;
23444;SDS011;11895;48.738;9.320;2023-01-09T05:34:50;2.15;;;0.50;;
23444;SDS011;11895;48.738;9.320;2023-01-09T05:37:18;1.90;;;0.70;;
23444;SDS011;11895;48.738;9.320;2023-01-09T05:39:50;0.50;;;0.50;;
23444;SDS011;11895;48.738;9.320;2023-01-09T05:42:18;1.40;;;0.60;;
23444;SDS011;11895;48.738;9.320;2023-01-09T05:44:45;2.25;;;0.55;;
23444;SDS011;11895;48.738;9.320;2023-01-09T05:47:13;0.65;;;0.50;;
23444;SDS011;11895;48.738;9.320;2023-01-09T05:49:41;3.67;;;0.55;;
23444;SDS011;11895;48.738;9.320;2023-01-09T05:52:08;4.20;;;0.80;;
23444;SDS011;11895;48.738;9.320;2023-01-09T05:54:36;1.25;;;0.60;;
23444;SDS011;11895;48.738;9.320;2023-01-09T05:57:03;0.55;;;0.50;;
23444;SDS011;11895;48.738;9.320;2023-01-09T05:59:31;1.35;;;0.60;;
23444;SDS011;11895;48.738;9.320;2023-01-09T06:01:59;2.63;;;0.63;;
23444;SDS011;11895;48.738;9.320;2023-01-09T06:04:26;2.03;;;0.50;;
23444;SDS011;11895;48.738;9.320;2023-01-09T06:06:56;3.45;;;0.60;;
23444;SDS011;11895;48.738;9.320;2023-01-09T06:09:29;1.63;;;0.60;;
23444;SDS011;11895;48.738;9.320;2023-01-09T06:11:56;1.77;;;0.60;;
23444;SDS011;11895;48.738;9.320;2023-01-09T06:14:24;1.33;;;0.80;;
23444;SDS011;11895;48.738;9.320;2023-01-09T06:16:57;0.60;;;0.60;;
23444;SDS011;11895;48.738;9.320;2023-01-09T06:19:25;3.33;;;0.70;;
23444;SDS011;11895;48.738;9.320;2023-01-09T06:21:53;3.85;;;0.95;;
23444;SDS011;11895;48.738;9.320;2023-01-09T06:24:20;2.53;;;0.70;;
23444;SDS011;11895;48.738;9.320;2023-01-09T06:26:48;1.42;;;0.60;;
23444;SDS011;11895;48.738;9.320;2023-01-09T06:29:16;0.85;;;0.60;;
23444;SDS011;11895;48.738;9.320;2023-01-09T06:34:37;8.00;;;1.45;;
23444;SDS011;11895;48.738;9.320;2023-01-09T06:37:04;1.02;;;0.88;;
23444;SDS011;11895;48.738;9.320;2023-01-09T06:39:32;1.58;;;0.90;;
23444;SDS011;11895;48.738;9.320;2023-01-09T06:42:00;0.85;;;0.60;;
23444;SDS011;11895;48.738;9.320;2023-01-09T06:44:27;3.75;;;0.80;;
23444;SDS011;11895;48.738;9.320;2023-01-09T06:46:55;1.10;;;0.73;;
23444;SDS011;11895;48.738;9.320;2023-01-09T06:49:23;1.45;;;0.88;;
23444;SDS011;11895;48.738;9.320;2023-01-09T06:51:51;1.45;;;0.93;;
23444;SDS011;11895;48.738;9.320;2023-01-09T06:54:19;2.25;;;0.90;;
23444;SDS011;11895;48.738;9.320;2023-01-09T06:59:15;4.05;;;1.08;;
23444;SDS011;11895;48.738;9.320;2023-01-09T07:01:43;2.50;;;0.90;;
23444;SDS011;11895;48.738;9.320;2023-01-09T07:04:11;6.25;;;1.17;;
23444;SDS011;11895;48.738;9.320;2023-01-09T07:06:39;2.97;;;0.90;;
23444;SDS011;11895;48.738;9.320;2023-01-09T07:09:06;4.25;;;1.25;;
23444;SDS011;11895;48.738;9.320;2023-01-09T07:11:38;1.58;;;0.88;;
23444;SDS011;11895;48.738;9.320;2023-01-09T07:14:06;2.38;;;1.30;;
23444;SDS011;11895;48.738;9.320;2023-01-09T07:16:34;5.50;;;1.30;;
23444;SDS011;11895;48.738;9.320;2023-01-09T07:19:02;3.25;;;1.23;;
23444;SDS011;11895;48.738;9.320;2023-01-09T07:21:29;11.10;;;1.30;;
23444;SDS011;11895;48.738;9.320;2023-01-09T07:23:58;4.70;;;1.40;;
23444;SDS011;11895;48.738;9.320;2023-01-09T07:26:26;4.13;;;1.33;;
23444;SDS011;11895;48.738;9.320;2023-01-09T07:28:53;2.35;;;1.05;;
23444;SDS011;11895;48.738;9.320;2023-01-09T07:31:21;4.10;;;1.55;;
23444;SDS011;11895;48.738;9.320;2023-01-09T07:33:49;4.72;;;1.10;;
23444;SDS011;11895;48.738;9.320;2023-01-09T07:36:17;2.97;;;1.27;;
23444;SDS011;11895;48.738;9.320;2023-01-09T07:38:44;2.65;;;1.27;;
23444;SDS011;11895;48.738;9.320;2023-01-09T07:41:12;2.30;;;1.20;;
23444;SDS011;11895;48.738;9.320;2023-01-09T07:43:40;6.40;;;1.52;;
23444;SDS011;11895;48.738;9.320;2023-01-09T07:46:07;7.72;;;1.67;;
23444;SDS011;11895;48.738;9.320;2023-01-09T07:48:35;5.65;;;2.03;;
23444;SDS011;11895;48.738;9.320;2023-01-09T07:51:03;5.63;;;1.58;;
23444;SDS011;11895;48.738;9.320;2023-01-09T07:53:31;4.60;;;1.40;;
23444;SDS011;11895;48.738;9.320;2023-01-09T07:56:01;2.95;;;1.45;;
23444;SDS011;11895;48.738;9.320;2023-01-09T07:58:29;4.97;;;1.75;;
23444;SDS011;11895;48.738;9.320;2023-01-09T08:00:59;3.20;;;1.42;;
23444;SDS011;11895;48.738;9.320;2023-01-09T08:03:27;5.20;;;1.35;;
23444;SDS011;11895;48.738;9.320;2023-01-09T08:05:54;6.18;;;2.28;;
23444;SDS011;11895;48.738;9.320;2023-01-09T08:08:22;5.07;;;1.02;;
23444;SDS011;11895;48.738;9.320;2023-01-09T08:10:50;3.00;;;1.00;;
23444;SDS011;11895;48.738;9.320;2023-01-09T08:13:17;2.70;;;1.10;;
23444;SDS011;11895;48.738;9.320;2023-01-09T08:15:45;8.77;;;1.10;;
23444;SDS011;11895;48.738;9.320;2023-01-09T08:18:13;2.35;;;1.25;;
23444;SDS011;11895;48.738;9.320;2023-01-09T08:20:41;4.68;;;1.25;;
23444;SDS011;11895;48.738;9.320;2023-01-09T08:23:08;7.45;;;1.10;;
23444;SDS011;11895;48.738;9.320;2023-01-09T08:25:36;3.42;;;1.10;;
23444;SDS011;11895;48.738;9.320;2023-01-09T08:28:04;2.30;;;0.80;;
23444;SDS011;11895;48.738;9.320;2023-01-09T08:30:31;5.20;;;1.05;;
23444;SDS011;11895;48.738;9.320;2023-01-09T08:32:59;5.38;;;1.63;;
23444;SDS011;11895;48.738;9.320;2023-01-09T08:35:27;3.47;;;1.13;;
23444;SDS011;11895;48.738;9.320;2023-01-09T08:37:54;4.45;;;1.15;;
23444;SDS011;11895;48.738;9.320;2023-01-09T08:40:22;6.80;;;1.58;;
23444;SDS011;11895;48.738;9.320;2023-01-09T08:42:50;5.07;;;1.30;;
23444;SDS011;11895;48.738;9.320;2023-01-09T08:45:36;4.28;;;1.33;;
23444;SDS011;11895;48.738;9.320;2023-01-09T08:48:22;5.68;;;1.63;;
23444;SDS011;11895;48.738;9.320;2023-01-09T08:50:50;6.50;;;1.25;;
23444;SDS011;11895;48.738;9.320;2023-01-09T08:53:19;8.57;;;1.10;;
23444;SDS011;11895;48.738;9.320;2023-01-09T08:55:47;2.88;;;1.23;;
23444;SDS011;11895;48.738;9.320;2023-01-09T08:58:14;5.93;;;1.20;;
23444;SDS011;11895;48.738;9.320;2023-01-09T09:00:42;7.13;;;2.60;;
23444;SDS011;11895;48.738;9.320;2023-01-09T09:03:10;11.25;;;1.60;;
23444;SDS011;11895;48.738;9.320;2023-01-09T09:05:37;6.20;;;1.48;;
23444;SDS011;11895;48.738;9.320;2023-01-09T09:08:34;6.43;;;1.35;;
23444;SDS011;11895;48.738;9.320;2023-01-09T09:11:40;5.85;;;1.40;;
23444;SDS011;11895;48.738;9.320;2023-01-09T09:14:08;6.15;;;1.30;;
23444;SDS011;11895;48.738;9.320;2023-01-09T09:16:57;3.95;;;1.02;;
23444;SDS011;11895;48.738;9.320;2023-01-09T09:19:25;8.93;;;1.80;;
23444;SDS011;11895;48.738;9.320;2023-01-09T09:21:52;6.07;;;1.10;;
23444;SDS011;11895;48.738;9.320;2023-01-09T09:24:20;3.97;;;1.13;;
23444;SDS011;11895;48.738;9.320;2023-01-09T09:26:47;6.25;;;1.05;;
23444;SDS011;11895;48.738;9.320;2023-01-09T09:29:15;3.17;;;1.05;;
23444;SDS011;11895;48.738;9.320;2023-01-09T09:31:46;6.88;;;1.20;;
23444;SDS011;11895;48.738;9.320;2023-01-09T09:34:14;5.80;;;1.20;;
23444;SDS011;11895;48.738;9.320;2023-01-09T09:36:45;3.90;;;1.20;;
23444;SDS011;11895;48.738;9.320;2023-01-09T09:39:13;4.70;;;1.25;;
23444;SDS011;11895;48.738;9.320;2023-01-09T09:41:45;6.03;;;1.20;;
23444;SDS011;11895;48.738;9.320;2023-01-09T09:56:22;10.02;;;1.45;;
23444;SDS011;11895;48.738;9.320;2023-01-09T09:58:55;6.03;;;1.58;;
23444;SDS011;11895;48.738;9.320;2023-01-09T10:01:40;9.57;;;1.40;;
23444;SDS011;11895;48.738;9.320;2023-01-09T10:04:17;2.97;;;1.17;;
23444;SDS011;11895;48.738;9.320;2023-01-09T10:07:14;3.22;;;1.13;;
23444;SDS011;11895;48.738;9.320;2023-01-09T10:09:51;5.22;;;1.30;;
23444;SDS011;11895;48.738;9.320;2023-01-09T10:12:27;6.93;;;1.23;;
23444;SDS011;11895;48.738;9.320;2023-01-09T10:15:17;10.30;;;1.42;;
23444;SDS011;11895;48.738;9.320;2023-01-09T10:21:11;7.43;;;1.27;;
23444;SDS011;11895;48.738;9.320;2023-01-09T10:24:07;3.72;;;1.00;;
23444;SDS011;11895;48.738;9.320;2023-01-09T10:38:58;3.90;;;1.27;;
23444;SDS011;11895;48.738;9.320;2023-01-09T10:41:53;4.50;;;1.05;;
23444;SDS011;11895;48.738;9.320;2023-01-09T10:44:44;12.52;;;1.48;;
23444;SDS011;11895;48.738;9.320;2023-01-09T10:47:26;8.10;;;1.33;;
23444;SDS011;11895;48.738;9.320;2023-01-09T10:50:00;7.35;;;1.30;;
23444;SDS011;11895;48.738;9.320;2023-01-09T10:52:45;8.10;;;1.40;;
23444;SDS011;11895;48.738;9.320;2023-01-09T10:58:14;9.43;;;1.60;;
23444;SDS011;11895;48.738;9.320;2023-01-09T11:00:44;5.30;;;1.30;;
23444;SDS011;11895;48.738;9.320;2023-01-09T11:03:15;10.05;;;1.58;;
23444;SDS011;11895;48.738;9.320;2023-01-09T11:05:53;6.80;;;1.48;;
23444;SDS011;11895;48.738;9.320;2023-01-09T11:10:58;9.48;;;1.80;;
23444;SDS011;11895;48.738;9.320;2023-01-09T11:13:28;6.55;;;1.70;;
23444;SDS011;11895;48.738;9.320;2023-01-09T11:18:50;3.33;;;1.17;;
23444;SDS011;11895;48.738;9.320;2023-01-09T11:24:17;6.72;;;1.10;;
23444;SDS011;11895;48.738;9.320;2023-01-09T11:26:47;7.15;;;1.20;;
23444;SDS011;11895;48.738;9.320;2023-01-09T11:29:18;4.05;;;1.38;;
23444;SDS011;11895;48.738;9.320;2023-01-09T11:31:55;5.82;;;1.38;;
23444;SDS011;11895;48.738;9.320;2023-01-09T11:34:25;7.82;;;1.52;;
23444;SDS011;11895;48.738;9.320;2023-01-09T11:37:06;5.07;;;1.52;;
23444;SDS011;11895;48.738;9.320;2023-01-09T11:39:37;6.85;;;1.20;;
23444;SDS011;11895;48.738;9.320;2023-01-09T11:42:30;5.93;;;1.30;;
23444;SDS011;11895;48.738;9.320;2023-01-09T11:45:17;4.63;;;1.20;;
23444;SDS011;11895;48.738;9.320;2023-01-09T11:47:58;4.03;;;1.10;;
23444;SDS011;11895;48.738;9.320;2023-01-09T11:56:54;6.75;;;1.50;;
23444;SDS011;11895;48.738;9.320;2023-01-09T11:59:26;4.03;;;0.98;;
23444;SDS011;11895;48.738;9.320;2023-01-09T12:10:23;4.82;;;1.20;;
23444;SDS011;11895;48.738;9.320;2023-01-09T12:13:27;6.63;;;1.20;;
23444;SDS011;11895;48.738;9.320;2023-01-09T12:16:25;4.13;;;1.55;;
23444;SDS011;11895;48.738;9.320;2023-01-09T12:25:00;9.38;;;1.60;;
23444;SDS011;11895;48.738;9.320;2023-01-09T12:31:44;4.95;;;1.58;;
23444;SDS011;11895;48.738;9.320;2023-01-09T12:34:20;6.45;;;1.50;;
23444;SDS011;11895;48.738;9.320;2023-01-09T12:40:19;6.60;;;1.27;;
23444;SDS011;11895;48.738;9.320;2023-01-09T12:49:03;7.80;;;1.48;;
23444;SDS011;11895;48.738;9.320;2023-01-09T12:54:38;4.00;;;1.10;;
23444;SDS011;11895;48.738;9.320;2023-01-09T12:57:26;5.85;;;1.35;;
23444;SDS011;11895;48.738;9.320;2023-01-09T13:00:04;4.90;;;1.50;;
23444;SDS011;11895;48.738;9.320;2023-01-09T13:03:03;5.13;;;1.10;;
23444;SDS011;11895;48.738;9.320;2023-01-09T13:05:57;4.20;;;1.45;;
23444;SDS011;11895;48.738;9.320;2023-01-09T13:11:12;5.32;;;1.23;;
23444;SDS011;11895;48.738;9.320;2023-01-09T13:13:56;6.25;;;1.20;;
23444;SDS011;11895;48.738;9.320;2023-01-09T13:16:40;4.95;;;1.08;;
23444;SDS011;11895;48.738;9.320;2023-01-09T13:19:19;4.18;;;1.13;;
23444;SDS011;11895;48.738;9.320;2023-01-09T13:22:03;4.80;;;1.40;;
23444;SDS011;11895;48.738;9.320;2023-01-09T13:27:46;12.23;;;2.58;;
23444;SDS011;11895;48.738;9.320;2023-01-09T13:30:32;6.43;;;1.98;;
23444;SDS011;11895;48.738;9.320;2023-01-09T13:33:16;9.85;;;1.52;;
23444;SDS011;11895;48.738;9.320;2023-01-09T13:35:50;8.35;;;2.00;;
23444;SDS011;11895;48.738;9.320;2023-01-09T13:38:22;3.83;;;1.10;;
23444;SDS011;11895;48.738;9.320;2023-01-09T13:41:11;3.35;;;1.13;;
23444;SDS011;11895;48.738;9.320;2023-01-09T13:44:01;5.95;;;1.13;;
23444;SDS011;11895;48.738;9.320;2023-01-09T13:46:34;3.40;;;1.30;;
23444;SDS011;11895;48.738;9.320;2023-01-09T13:52:24;5.13;;;1.10;;
23444;SDS011;11895;48.738;9.320;2023-01-09T13:55:25;4.38;;;1.27;;
23444;SDS011;11895;48.738;9.320;2023-01-09T14:03:12;4.10;;;0.85;;
23444;SDS011;11895;48.738;9.320;2023-01-09T14:06:04;6.82;;;0.95;;
23444;SDS011;11895;48.738;9.320;2023-01-09T14:08:41;4.13;;;0.82;;
23444;SDS011;11895;48.738;9.320;2023-01-09T14:11:16;1.98;;;0.88;;
23444;SDS011;11895;48.738;9.320;2023-01-09T14:13:50;1.77;;;0.85;;
23444;SDS011;11895;48.738;9.320;2023-01-09T14:16:26;1.27;;;0.60;;
23444;SDS011;11895;48.738;9.320;2023-01-09T14:21:52;1.75;;;0.85;;
23444;SDS011;11895;48.738;9.320;2023-01-09T14:24:24;3.35;;;0.93;;
23444;SDS011;11895;48.738;9.320;2023-01-09T14:30:15;2.00;;;0.68;;
23444;SDS011;11895;48.738;9.320;2023-01-09T14:35:38;3.15;;;0.82;;
23444;SDS011;11895;48.738;9.320;2023-01-09T14:39:03;3.03;;;1.00;;
23444;SDS011;11895;48.738;9.320;2023-01-09T14:41:36;2.55;;;0.90;;
23444;SDS011;11895;48.738;9.320;2023-01-09T14:46:58;2.60;;;0.85;;
23444;SDS011;11895;48.738;9.320;2023-01-09T14:49:40;8.52;;;1.00;;
23444;SDS011;11895;48.738;9.320;2023-01-09T14:55:01;1.77;;;0.90;;
23444;SDS011;11895;48.738;9.320;2023-01-09T14:57:37;2.30;;;0.80;;
23444;SDS011;11895;48.738;9.320;2023-01-09T15:02:40;3.22;;;1.15;;
23444;SDS011;11895;48.738;9.320;2023-01-09T15:05:16;4.35;;;0.80;;
23444;SDS011;11895;48.738;9.320;2023-01-09T15:07:50;3.92;;;1.20;;
23444;SDS011;11895;48.738;9.320;2023-01-09T15:10:22;2.88;;;0.70;;
23444;SDS011;11895;48.738;9.320;2023-01-09T15:13:01;2.35;;;1.10;;
23444;SDS011;11895;48.738;9.320;2023-01-09T15:15:31;5.35;;;1.60;;
23444;SDS011;11895;48.738;9.320;2023-01-09T15:18:05;5.07;;;1.35;;
23444;SDS011;11895;48.738;9.320;2023-01-09T15:20:35;5.57;;;1.20;;
23444;SDS011;11895;48.738;9.320;2023-01-09T15:24:55;2.72;;;0.90;;
23444;SDS011;11895;48.738;9.320;2023-01-09T15:27:24;5.25;;;1.10;;
23444;SDS011;11895;48.738;9.320;2023-01-09T15:29:52;3.95;;;1.27;;
23444;SDS011;11895;48.738;9.320;2023-01-09T15:34:49;4.25;;;1.10;;
23444;SDS011;11895;48.738;9.320;2023-01-09T15:37:30;3.67;;;1.10;;
23444;SDS011;11895;48.738;9.320;2023-01-09T15:40:05;2.75;;;0.93;;
23444;SDS011;11895;48.738;9.320;2023-01-09T15:42:53;2.88;;;0.90;;
23444;SDS011;11895;48.738;9.320;2023-01-09T15:45:27;5.28;;;1.00;;
23444;SDS011;11895;48.738;9.320;2023-01-09T15:53:47;4.25;;;1.27;;
23444;SDS011;11895;48.738;9.320;2023-01-09T15:56:23;3.85;;;1.52;;
23444;SDS011;11895;48.738;9.320;2023-01-09T15:58:59;3.17;;;1.20;;
23444;SDS011;11895;48.738;9.320;2023-01-09T16:01:31;9.52;;;4.15;;
23444;SDS011;11895;48.738;9.320;2023-01-09T16:04:11;3.22;;;1.80;;
23444;SDS011;11895;48.738;9.320;2023-01-09T16:06:50;5.25;;;1.13;;
23444;SDS011;11895;48.738;9.320;2023-01-09T16:09:22;2.88;;;1.15;;
23444;SDS011;11895;48.738;9.320;2023-01-09T16:11:57;2.13;;;1.00;;
23444;SDS011;11895;48.738;9.320;2023-01-09T16:14:34;3.50;;;1.65;;
23444;SDS011;11895;48.738;9.320;2023-01-09T16:17:06;4.03;;;0.90;;
23444;SDS011;11895;48.738;9.320;2023-01-09T16:19:57;2.10;;;0.80;;
23444;SDS011;11895;48.738;9.320;2023-01-09T16:22:51;1.55;;;1.08;;
23444;SDS011;11895;48.738;9.320;2023-01-09T16:25:31;3.25;;;0.95;;
23444;SDS011;11895;48.738;9.320;2023-01-09T16:28:19;2.35;;;1.08;;
23444;SDS011;11895;48.738;9.320;2023-01-09T16:30:54;3.10;;;0.85;;
23444;SDS011;11895;48.738;9.320;2023-01-09T16:33:29;3.67;;;1.40;;
23444;SDS011;11895;48.738;9.320;2023-01-09T16:35:58;2.58;;;1.80;;
23444;SDS011;11895;48.738;9.320;2023-01-09T16:38:26;3.40;;;1.10;;
23444;SDS011;11895;48.738;9.320;2023-01-09T16:43:51;2.67;;;0.95;;
23444;SDS011;11895;48.738;9.320;2023-01-09T16:46:19;2.58;;;1.20;;
23444;SDS011;11895;48.738;9.320;2023-01-09T16:48:47;2.95;;;1.40;;
23444;SDS011;11895;48.738;9.320;2023-01-09T16:51:19;3.17;;;1.02;;
23444;SDS011;11895;48.738;9.320;2023-01-09T16:53:48;1.95;;;1.15;;
23444;SDS011;11895;48.738;9.320;2023-01-09T16:56:17;4.03;;;1.73;;
23444;SDS011;11895;48.738;9.320;2023-01-09T16:58:48;2.60;;;0.93;;
23444;SDS011;11895;48.738;9.320;2023-01-09T17:01:18;1.48;;;1.10;;
23444;SDS011;11895;48.738;9.320;2023-01-09T17:03:47;4.93;;;1.00;;
23444;SDS011;11895;48.738;9.320;2023-01-09T17:06:28;2.53;;;1.10;;
23444;SDS011;11895;48.738;9.320;2023-01-09T17:08:57;2.20;;;0.90;;
23444;SDS011;11895;48.738;9.320;2023-01-09T17:11:26;3.75;;;2.22;;
23444;SDS011;11895;48.738;9.320;2023-01-09T17:13:57;2.30;;;1.00;;
23444;SDS011;11895;48.738;9.320;2023-01-09T17:16:26;3.47;;;1.10;;
23444;SDS011;11895;48.738;9.320;2023-01-09T17:18:55;1.75;;;1.13;;
23444;SDS011;11895;48.738;9.320;2023-01-09T17:21:24;2.92;;;0.90;;
23444;SDS011;11895;48.738;9.320;2023-01-09T17:23:54;3.70;;;1.33;;
23444;SDS011;11895;48.738;9.320;2023-01-09T17:26:42;3.83;;;2.10;;
23444;SDS011;11895;48.738;9.320;2023-01-09T17:29:32;1.35;;;0.93;;
23444;SDS011;11895;48.738;9.320;2023-01-09T17:32:00;4.07;;;1.40;;
23444;SDS011;11895;48.738;9.320;2023-01-09T17:34:28;1.25;;;1.13;;
23444;SDS011;11895;48.738;9.320;2023-01-09T17:36:57;3.90;;;1.48;;
23444;SDS011;11895;48.738;9.320;2023-01-09T17:39:24;2.33;;;1.23;;
23444;SDS011;11895;48.738;9.320;2023-01-09T17:41:52;1.52;;;1.20;;
23444;SDS011;11895;48.738;9.320;2023-01-09T17:44:22;4.72;;;1.55;;
23444;SDS011;11895;48.738;9.320;2023-01-09T17:46:50;2.80;;;1.30;;
23444;SDS011;11895;48.738;9.320;2023-01-09T17:49:19;2.20;;;1.40;;
23444;SDS011;11895;48.738;9.320;2023-01-09T17:51:47;2.17;;;1.35;;
23444;SDS011;11895;48.738;9.320;2023-01-09T17:54:15;1.80;;;1.40;;
23444;SDS011;11895;48.738;9.320;2023-01-09T17:56:46;2.83;;;1.38;;
23444;SDS011;11895;48.738;9.320;2023-01-09T17:59:16;2.95;;;1.50;;
23444;SDS011;11895;48.738;9.320;2023-01-09T18:01:45;3.60;;;1.85;;
23444;SDS011;11895;48.738;9.320;2023-01-09T18:04:13;4.05;;;1.60;;
23444;SDS011;11895;48.738;9.320;2023-01-09T18:06:41;5.28;;;1.98;;
23444;SDS011;11895;48.738;9.320;2023-01-09T18:09:11;4.05;;;1.60;;